Terminal Aerodrome Forecast
Issued by NWS Charleston, SC

Home | Current Version | Previous Version | Text Only | Print | Product List | Glossary On
Versions: 1 2 3 4 5 6 7 8 9 10 11 12 13 14 15 16 17 18 19 20 21 22
000
FTUS42 KCHS 221650 AAD
TAFCHS
TAF AMD
KCHS 221650Z 2217/2312 36007KT P6SM BKN012
     FM221800 36007KT P6SM SCT025
     FM222000 01007KT P6SM SCT150=

USA.gov is the U.S. government's official web portal to all federal, state and local government web resources and services.